createdAt,value
2023-04-24T00:01:37.980Z,58.65
2023-04-24T00:04:05.413Z,58.37
2023-04-24T00:06:35.222Z,58.27
2023-04-24T00:09:02.973Z,58.15
2023-04-24T00:11:30.778Z,57.94
2023-04-24T00:13:58.353Z,57.80
2023-04-24T00:16:25.807Z,57.84
2023-04-24T00:18:53.838Z,57.59
2023-04-24T00:21:21.492Z,57.48
2023-04-24T00:23:49.183Z,57.64
2023-04-24T00:26:16.276Z,57.52
2023-04-24T00:28:43.886Z,57.51
2023-04-24T00:31:11.203Z,57.53
2023-04-24T00:33:38.284Z,57.51
2023-04-24T00:36:05.535Z,57.23
2023-04-24T00:38:33.039Z,56.98
2023-04-24T00:41:00.897Z,57.36
2023-04-24T00:43:28.074Z,57.33
2023-04-24T00:45:56.000Z,56.99
2023-04-24T00:48:24.404Z,56.69
2023-04-24T00:50:51.624Z,57.05
2023-04-24T00:53:18.767Z,57.10
2023-04-24T00:55:46.360Z,56.94
2023-04-24T00:58:14.058Z,57.17
2023-04-24T01:00:41.893Z,57.05
2023-04-24T01:03:09.896Z,57.28
2023-04-24T01:05:37.517Z,57.21
2023-04-24T01:08:04.723Z,57.02
2023-04-24T01:10:34.280Z,57.03
2023-04-24T01:13:01.535Z,56.99
2023-04-24T01:15:28.688Z,57.31
2023-04-24T01:17:55.773Z,57.43
2023-04-24T01:20:23.734Z,57.39
2023-04-24T01:22:50.960Z,57.35
2023-04-24T01:25:18.295Z,57.30
2023-04-24T01:27:45.886Z,57.28
2023-04-24T01:30:14.019Z,57.42
2023-04-24T01:32:45.474Z,57.66
2023-04-24T01:35:12.805Z,57.59
2023-04-24T01:37:40.158Z,57.52
2023-04-24T01:40:08.779Z,57.75
2023-04-24T01:42:36.430Z,57.58
2023-04-24T01:45:06.421Z,57.30
2023-04-24T01:47:34.616Z,57.47
2023-04-24T01:50:01.769Z,57.52
2023-04-24T01:52:32.088Z,57.52
2023-04-24T01:55:01.725Z,57.21
2023-04-24T01:57:31.334Z,57.17
2023-04-24T01:59:58.578Z,57.27
2023-04-24T02:02:28.568Z,57.02
2023-04-24T02:04:58.252Z,56.90
2023-04-24T02:07:25.390Z,57.20
2023-04-24T02:09:52.530Z,57.35
2023-04-24T02:12:20.464Z,56.96
2023-04-24T02:14:47.636Z,56.66
2023-04-24T02:17:16.498Z,55.68
2023-04-24T02:19:44.098Z,56.08
2023-04-24T02:22:11.649Z,55.80
2023-04-24T02:24:39.843Z,55.71
2023-04-24T02:27:07.799Z,56.01
2023-04-24T02:29:35.004Z,56.36
2023-04-24T02:32:02.229Z,56.03
2023-04-24T02:34:29.377Z,56.44
2023-04-24T02:36:56.549Z,55.98
2023-04-24T02:39:23.698Z,56.05
2023-04-24T02:41:50.830Z,55.80
2023-04-24T02:44:18.408Z,56.01
2023-04-24T02:46:45.664Z,56.67
2023-04-24T02:49:13.153Z,57.02
2023-04-24T02:51:42.213Z,57.20
2023-04-24T02:54:11.064Z,57.30
2023-04-24T02:56:38.504Z,57.61
2023-04-24T02:59:07.477Z,57.70
2023-04-24T03:01:35.072Z,57.58
2023-04-24T03:04:03.044Z,57.83
2023-04-24T03:06:32.406Z,57.58
2023-04-24T03:08:59.613Z,57.67
2023-04-24T03:11:26.844Z,57.68
2023-04-24T03:13:53.969Z,57.53
2023-04-24T03:16:21.128Z,56.78
2023-04-24T03:18:48.235Z,57.20
2023-04-24T03:21:15.875Z,57.25
2023-04-24T03:23:44.003Z,57.11
2023-04-24T03:26:11.428Z,56.96
2023-04-24T03:28:45.396Z,57.21
2023-04-24T03:31:12.629Z,56.94
2023-04-24T03:33:39.767Z,57.33
2023-04-24T03:36:08.490Z,57.46
2023-04-24T03:38:39.782Z,56.69
2023-04-24T03:41:39.115Z,55.46
2023-04-24T03:44:13.178Z,54.55
2023-04-24T03:46:41.418Z,53.54
2023-04-24T03:49:08.658Z,52.61
2023-04-24T03:51:39.711Z,52.05
2023-04-24T03:54:19.556Z,51.47
2023-04-24T03:56:47.229Z,50.86
2023-04-24T03:59:14.520Z,50.97
2023-04-24T04:01:44.990Z,50.99
2023-04-24T04:04:15.689Z,51.06
2023-04-24T04:06:45.254Z,50.97
2023-04-24T04:09:13.379Z,50.48
2023-04-24T04:11:40.762Z,49.90
2023-04-24T04:14:07.852Z,49.96
2023-04-24T04:16:39.792Z,50.11
2023-04-24T04:19:08.458Z,49.83
2023-04-24T04:21:35.792Z,49.58
2023-04-24T04:24:25.333Z,49.77
2023-04-24T04:26:53.300Z,49.58
2023-04-24T04:29:28.012Z,49.67
2023-04-24T04:31:56.271Z,49.67
2023-04-24T04:34:24.303Z,49.57
2023-04-24T04:36:52.700Z,49.13
2023-04-24T04:39:45.826Z,48.63
2023-04-24T04:42:22.132Z,48.43
2023-04-24T04:44:51.454Z,48.10
2023-04-24T04:47:25.859Z,48.22
2023-04-24T04:49:54.726Z,47.75
2023-04-24T04:52:26.899Z,47.64
2023-04-24T04:55:02.050Z,47.37
2023-04-24T04:57:49.082Z,47.03
2023-04-24T05:00:16.752Z,46.72
2023-04-24T05:02:51.087Z,46.49
2023-04-24T05:05:19.092Z,46.26
2023-04-24T05:07:46.558Z,46.16
2023-04-24T05:10:13.818Z,45.89
2023-04-24T05:12:40.853Z,46.61
2023-04-24T05:15:08.932Z,45.57
2023-04-24T05:17:36.493Z,45.87
2023-04-24T05:20:06.470Z,45.94
2023-04-24T05:22:34.094Z,45.52
2023-04-24T05:25:01.472Z,45.27
2023-04-24T05:27:42.383Z,45.32
2023-04-24T05:30:15.431Z,45.46
2023-04-24T05:32:43.115Z,45.51
2023-04-24T05:35:10.229Z,45.36
2023-04-24T05:37:37.646Z,44.75
2023-04-24T05:40:06.494Z,44.41
2023-04-24T05:42:33.620Z,44.84
2023-04-24T05:45:00.771Z,44.71
2023-04-24T05:47:27.956Z,43.84
2023-04-24T05:49:55.771Z,44.26
2023-04-24T05:52:22.893Z,43.61
2023-04-24T05:54:51.906Z,43.41
2023-04-24T05:57:23.516Z,43.47
2023-04-24T05:59:57.673Z,43.37
2023-04-24T06:02:26.224Z,43.26
2023-04-24T06:04:53.960Z,43.41
2023-04-24T06:07:21.447Z,43.01
2023-04-24T06:09:48.632Z,42.74
2023-04-24T06:12:16.597Z,42.77
2023-04-24T06:15:04.948Z,43.07
2023-04-24T06:18:07.450Z,42.72
2023-04-24T06:20:35.248Z,43.37
2023-04-24T06:23:03.135Z,42.84
2023-04-24T06:25:30.254Z,42.99
2023-04-24T06:27:57.927Z,43.21
2023-04-24T06:30:25.147Z,43.24
2023-04-24T06:32:52.549Z,43.21
2023-04-24T06:35:19.645Z,42.90
2023-04-24T06:37:47.504Z,42.61
2023-04-24T06:40:14.828Z,42.91
2023-04-24T06:42:42.090Z,42.46
2023-04-24T06:45:09.968Z,42.25
2023-04-24T06:47:37.282Z,42.38
2023-04-24T06:50:04.869Z,41.76
2023-04-24T06:52:34.164Z,41.33
2023-04-24T06:55:03.713Z,40.84
2023-04-24T06:57:31.520Z,40.23
2023-04-24T06:59:58.616Z,40.08
2023-04-24T07:02:26.485Z,40.38
2023-04-24T07:04:55.272Z,40.80
2023-04-24T07:07:24.961Z,40.55
2023-04-24T07:09:52.509Z,40.28
2023-04-24T07:12:21.594Z,41.58
2023-04-24T07:14:49.097Z,41.67
2023-04-24T07:17:16.637Z,42.29
2023-04-24T07:19:44.311Z,41.56
2023-04-24T07:22:17.704Z,41.60
2023-04-24T07:24:45.967Z,41.53
2023-04-24T07:27:13.247Z,41.62
2023-04-24T07:29:41.487Z,41.16
2023-04-24T07:32:09.088Z,40.88
2023-04-24T07:34:39.197Z,40.18
2023-04-24T07:37:06.422Z,40.72
2023-04-24T07:39:33.491Z,40.17
2023-04-24T07:42:00.882Z,39.54
2023-04-24T07:44:28.077Z,39.62
2023-04-24T07:46:55.702Z,40.36
2023-04-24T07:49:22.815Z,40.50
2023-04-24T07:51:51.219Z,40.96
2023-04-24T07:54:18.445Z,41.38
2023-04-24T07:56:46.200Z,41.01
2023-04-24T07:59:13.378Z,40.57
2023-04-24T08:01:40.571Z,40.31
2023-04-24T08:04:07.968Z,39.33
2023-04-24T08:06:35.696Z,39.06
2023-04-24T08:09:02.852Z,39.32
2023-04-24T08:11:29.920Z,38.85
2023-04-24T08:13:57.212Z,37.87
2023-04-24T08:16:27.492Z,37.22
2023-04-24T08:18:54.720Z,37.69
2023-04-24T08:21:22.518Z,38.71
2023-04-24T08:23:49.622Z,39.01
2023-04-24T08:26:16.726Z,38.36
2023-04-24T08:28:44.001Z,38.77
2023-04-24T08:31:11.250Z,38.44
2023-04-24T08:33:38.364Z,39.10
2023-04-24T08:36:07.063Z,39.19
2023-04-24T08:38:34.957Z,38.88
2023-04-24T08:41:03.058Z,39.52
2023-04-24T08:43:30.710Z,39.22
2023-04-24T08:45:58.898Z,39.33
2023-04-24T08:48:31.659Z,39.50
2023-04-24T08:51:00.555Z,39.50
2023-04-24T08:53:28.389Z,39.43
2023-04-24T08:55:57.821Z,38.94
2023-04-24T08:58:28.636Z,38.41
2023-04-24T09:00:56.633Z,36.97
2023-04-24T09:03:24.805Z,36.47
2023-04-24T09:05:55.375Z,36.32
2023-04-24T09:08:26.863Z,35.61
2023-04-24T09:10:54.327Z,35.57
2023-04-24T09:13:21.922Z,35.36
2023-04-24T09:15:49.272Z,36.07
2023-04-24T09:18:16.406Z,35.88
2023-04-24T09:21:03.454Z,36.10
2023-04-24T09:23:32.839Z,35.55
2023-04-24T09:26:02.575Z,35.09
2023-04-24T09:28:36.180Z,35.76
2023-04-24T09:31:15.762Z,36.43
2023-04-24T09:34:06.409Z,36.22
2023-04-24T09:36:40.060Z,36.52
2023-04-24T09:39:12.038Z,36.13
2023-04-24T09:41:55.563Z,35.99
2023-04-24T09:44:25.033Z,35.70
2023-04-24T09:46:57.816Z,35.73
2023-04-24T09:49:26.899Z,35.29
2023-04-24T09:52:11.362Z,35.86
2023-04-24T09:54:41.232Z,34.94
2023-04-24T09:57:10.280Z,35.39
2023-04-24T09:59:45.539Z,35.67
2023-04-24T10:02:22.512Z,35.09
2023-04-24T10:05:01.458Z,35.98
2023-04-24T10:07:29.143Z,35.74
2023-04-24T10:09:56.694Z,35.25
2023-04-24T10:12:24.830Z,35.25
2023-04-24T10:14:52.374Z,34.34
2023-04-24T10:17:21.910Z,35.36
2023-04-24T10:19:49.520Z,34.74
2023-04-24T10:22:18.947Z,34.66
2023-04-24T10:24:48.524Z,34.65
2023-04-24T10:27:16.580Z,34.11
2023-04-24T10:29:46.037Z,32.74
2023-04-24T10:32:13.117Z,31.94
2023-04-24T10:34:40.332Z,32.44
2023-04-24T10:37:07.547Z,33.44
2023-04-24T10:39:34.876Z,32.77
2023-04-24T10:42:02.080Z,32.19
2023-04-24T10:44:38.001Z,32.98
2023-04-24T10:47:05.461Z,33.65
2023-04-24T10:49:33.332Z,34.43
2023-04-24T10:52:06.776Z,35.21
2023-04-24T10:54:46.822Z,35.36
2023-04-24T10:57:23.044Z,35.77
2023-04-24T11:00:10.637Z,36.12
2023-04-24T11:02:40.187Z,36.03
2023-04-24T11:05:08.529Z,35.77
2023-04-24T11:08:14.455Z,36.97
2023-04-24T11:10:56.301Z,36.97
2023-04-24T11:13:26.176Z,37.21
2023-04-24T11:16:33.887Z,37.75
2023-04-24T11:19:06.932Z,38.04
2023-04-24T11:21:48.175Z,38.81
2023-04-24T11:24:29.839Z,38.11
2023-04-24T11:27:05.711Z,37.29
2023-04-24T11:30:02.141Z,36.61
2023-04-24T11:32:41.619Z,35.81
2023-04-24T11:35:17.761Z,34.69
2023-04-24T11:37:49.482Z,34.29
2023-04-24T11:40:26.600Z,33.08
2023-04-24T11:42:57.590Z,31.85
2023-04-24T11:45:30.527Z,30.38
2023-04-24T11:47:58.390Z,30.31
2023-04-24T11:50:28.946Z,30.60
2023-04-24T11:52:56.943Z,31.39
2023-04-24T11:55:27.816Z,32.08
2023-04-24T11:57:59.582Z,31.16
2023-04-24T12:00:34.713Z,30.89
2023-04-24T12:03:13.214Z,34.71
2023-04-24T12:05:41.536Z,34.56
2023-04-24T12:08:08.831Z,34.31
2023-04-24T12:10:37.721Z,34.47
2023-04-24T12:13:05.081Z,35.03
2023-04-24T12:15:32.307Z,34.43
2023-04-24T12:18:00.737Z,33.76
2023-04-24T12:20:33.689Z,33.95
2023-04-24T12:23:02.654Z,33.61
2023-04-24T12:25:33.189Z,33.26
2023-04-24T12:28:06.794Z,32.17
2023-04-24T12:30:45.836Z,27.96
2023-04-24T12:33:13.284Z,26.31
2023-04-24T12:35:42.147Z,27.72
2023-04-24T12:38:18.882Z,29.33
2023-04-24T12:40:46.060Z,30.57
2023-04-24T12:43:18.949Z,30.58
2023-04-24T12:45:50.673Z,31.39
2023-04-24T12:48:17.853Z,31.74
2023-04-24T12:50:46.794Z,32.24
2023-04-24T12:53:15.500Z,31.53
2023-04-24T12:55:42.769Z,31.81
2023-04-24T12:58:09.917Z,31.31
2023-04-24T13:00:37.550Z,30.29
2023-04-24T13:03:05.046Z,29.59
2023-04-24T13:05:32.348Z,29.39
2023-04-24T13:07:59.528Z,28.52
2023-04-24T13:10:26.764Z,26.63
2023-04-24T13:12:53.869Z,25.68
2023-04-24T13:15:21.152Z,24.19
2023-04-24T13:17:48.429Z,23.32
2023-04-24T13:20:15.727Z,23.76
2023-04-24T13:22:42.827Z,23.16
2023-04-24T13:25:11.287Z,23.05
2023-04-24T13:27:40.738Z,24.26
2023-04-24T13:30:09.053Z,23.38
2023-04-24T13:32:36.603Z,24.03
2023-04-24T13:35:04.153Z,23.47
2023-04-24T13:37:31.267Z,22.17
2023-04-24T13:39:58.412Z,21.52
2023-04-24T13:42:25.669Z,22.30
2023-04-24T13:44:55.045Z,23.81
2023-04-24T13:47:22.246Z,24.96
2023-04-24T13:49:49.637Z,24.84
2023-04-24T13:52:16.783Z,25.33
2023-04-24T13:54:43.828Z,23.85
2023-04-24T13:57:10.876Z,23.53
2023-04-24T13:59:38.230Z,23.67
2023-04-24T14:02:05.462Z,22.69
2023-04-24T14:04:32.785Z,23.31
2023-04-24T14:07:00.089Z,22.86
2023-04-24T14:09:27.213Z,22.35
2023-04-24T14:11:54.297Z,22.62
2023-04-24T14:14:21.564Z,21.37
2023-04-24T14:16:48.677Z,21.46
2023-04-24T14:19:15.734Z,20.66
2023-04-24T14:21:42.877Z,22.06
2023-04-24T14:24:10.325Z,23.94
2023-04-24T14:26:37.523Z,23.01
2023-04-24T14:29:14.242Z,21.81
2023-04-24T14:31:42.933Z,21.77
2023-04-24T14:34:10.569Z,22.09
2023-04-24T14:36:37.862Z,23.35
2023-04-24T14:39:08.472Z,22.61
2023-04-24T14:41:37.046Z,21.46
2023-04-24T14:44:05.100Z,22.68
2023-04-24T14:46:32.562Z,22.19
2023-04-24T14:49:00.021Z,23.07
2023-04-24T14:51:28.089Z,22.70
2023-04-24T14:53:55.432Z,22.10
2023-04-24T14:56:22.578Z,23.16
2023-04-24T14:58:50.316Z,23.77
2023-04-24T15:01:18.079Z,23.96
2023-04-24T15:03:46.135Z,23.85
2023-04-24T15:06:13.702Z,23.53
2023-04-24T15:08:40.889Z,23.64
2023-04-24T15:11:08.012Z,23.03
2023-04-24T15:13:35.130Z,23.78
2023-04-24T15:16:03.102Z,24.70
2023-04-24T15:18:30.502Z,24.90
2023-04-24T15:20:57.920Z,25.70
2023-04-24T15:23:24.999Z,25.52
2023-04-24T15:25:52.142Z,25.25
2023-04-24T15:28:19.265Z,26.18
2023-04-24T15:30:46.349Z,26.69
2023-04-24T15:33:13.659Z,27.72
2023-04-24T15:35:41.829Z,27.82
2023-04-24T15:38:09.500Z,27.82
2023-04-24T15:40:38.340Z,28.18
2023-04-24T15:43:05.606Z,27.56
2023-04-24T15:45:33.914Z,27.85
2023-04-24T15:48:01.688Z,28.45
2023-04-24T15:50:29.287Z,29.17
2023-04-24T15:52:56.412Z,29.75
2023-04-24T15:55:23.543Z,30.73
2023-04-24T15:57:50.733Z,31.34
2023-04-24T16:00:18.494Z,31.95
2023-04-24T16:02:46.196Z,31.76
2023-04-24T16:05:13.515Z,32.28
2023-04-24T16:07:40.579Z,31.80
2023-04-24T16:10:08.465Z,31.76
2023-04-24T16:12:35.629Z,32.12
2023-04-24T16:15:03.393Z,31.80
2023-04-24T16:17:30.523Z,32.04
2023-04-24T16:19:57.760Z,31.99
2023-04-24T16:22:24.959Z,32.20
2023-04-24T16:24:52.007Z,31.90
2023-04-24T16:27:19.194Z,32.19
2023-04-24T16:29:46.319Z,31.64
2023-04-24T16:32:13.405Z,31.28
2023-04-24T16:34:40.496Z,31.34
2023-04-24T16:37:07.615Z,31.64
2023-04-24T16:39:35.637Z,32.91
2023-04-24T16:42:03.033Z,33.10
2023-04-24T16:44:31.842Z,33.21
2023-04-24T16:46:59.124Z,33.59
2023-04-24T16:49:30.923Z,33.06
2023-04-24T16:51:58.611Z,31.58
2023-04-24T16:54:26.153Z,32.72
2023-04-24T16:56:54.647Z,32.05
2023-04-24T16:59:22.128Z,32.28
2023-04-24T17:01:49.997Z,31.37
2023-04-24T17:04:17.174Z,31.63
2023-04-24T17:06:44.363Z,32.22
2023-04-24T17:09:13.237Z,30.98
2023-04-24T17:11:40.280Z,30.97
2023-04-24T17:14:07.360Z,30.87
2023-04-24T17:16:34.817Z,29.77
2023-04-24T17:19:01.982Z,28.94
2023-04-24T17:21:29.273Z,31.31
2023-04-24T17:23:56.309Z,33.12
2023-04-24T17:26:23.533Z,33.01
2023-04-24T17:28:54.442Z,34.16
2023-04-24T17:31:21.765Z,35.47
2023-04-24T17:33:48.911Z,35.83
2023-04-24T17:36:16.331Z,36.37
2023-04-24T17:38:43.408Z,37.08
2023-04-24T17:41:10.449Z,37.26
2023-04-24T17:43:37.519Z,37.00
2023-04-24T17:46:04.766Z,36.96
2023-04-24T17:48:31.916Z,37.24
2023-04-24T17:50:58.970Z,38.02
2023-04-24T17:53:26.082Z,39.19
2023-04-24T17:55:54.331Z,39.46
2023-04-24T17:58:21.450Z,39.07
2023-04-24T18:00:48.605Z,38.54
2023-04-24T18:03:15.862Z,38.87
2023-04-24T18:05:43.245Z,38.49
2023-04-24T18:08:10.412Z,38.47
2023-04-24T18:10:37.570Z,38.64
2023-04-24T18:13:05.714Z,39.39
2023-04-24T18:15:33.034Z,39.58
2023-04-24T18:18:00.475Z,39.75
2023-04-24T18:20:27.768Z,39.69
2023-04-24T18:22:55.070Z,40.21
2023-04-24T18:25:26.751Z,40.42
2023-04-24T18:27:55.840Z,40.25
2023-04-24T18:30:24.292Z,40.46
2023-04-24T18:32:53.422Z,40.89
2023-04-24T18:35:21.635Z,40.58
2023-04-24T18:37:49.519Z,40.81
2023-04-24T18:40:17.865Z,40.53
2023-04-24T18:42:45.252Z,40.21
2023-04-24T18:45:14.602Z,40.21
2023-04-24T18:47:42.924Z,40.91
2023-04-24T18:50:11.136Z,40.73
2023-04-24T18:52:38.378Z,40.68
2023-04-24T18:55:07.096Z,40.66
2023-04-24T18:57:34.592Z,40.45
2023-04-24T19:00:01.847Z,40.88
2023-04-24T19:02:29.232Z,40.93
2023-04-24T19:04:56.500Z,40.64
2023-04-24T19:07:23.655Z,40.82
2023-04-24T19:09:50.713Z,40.37
2023-04-24T19:12:18.056Z,40.16
2023-04-24T19:14:46.857Z,40.17
2023-04-24T19:17:14.041Z,40.77
2023-04-24T19:19:41.185Z,40.81
2023-04-24T19:22:08.289Z,40.97
2023-04-24T19:24:35.512Z,40.98
2023-04-24T19:27:02.679Z,41.20
2023-04-24T19:29:29.906Z,41.20
2023-04-24T19:31:58.669Z,41.40
2023-04-24T19:34:26.441Z,41.59
2023-04-24T19:36:53.687Z,41.58
2023-04-24T19:39:21.090Z,41.92
2023-04-24T19:41:48.280Z,41.75
2023-04-24T19:44:17.283Z,42.40
2023-04-24T19:46:44.776Z,42.52
2023-04-24T19:49:12.634Z,42.50
2023-04-24T19:51:39.959Z,42.85
2023-04-24T19:54:07.587Z,42.81
2023-04-24T19:56:34.988Z,42.76
2023-04-24T19:59:02.198Z,42.81
2023-04-24T20:01:29.608Z,42.89
2023-04-24T20:03:56.942Z,43.14
2023-04-24T20:06:24.414Z,43.33
2023-04-24T20:08:51.766Z,43.39
2023-04-24T20:11:19.091Z,42.94
2023-04-24T20:13:46.321Z,43.13
2023-04-24T20:16:13.502Z,43.10
2023-04-24T20:18:40.933Z,43.05
2023-04-24T20:21:09.803Z,43.10
2023-04-24T20:23:36.915Z,43.11
2023-04-24T20:26:05.024Z,42.88
2023-04-24T20:28:32.191Z,42.54
2023-04-24T20:31:00.004Z,42.48
2023-04-24T20:33:28.534Z,42.56
2023-04-24T20:35:55.983Z,43.06
2023-04-24T20:38:24.425Z,43.33
2023-04-24T20:43:24.690Z,43.61
2023-04-24T20:45:53.933Z,43.88
2023-04-24T20:48:21.090Z,44.20
2023-04-24T20:50:50.181Z,44.06
2023-04-24T20:53:17.190Z,43.72
2023-04-24T20:55:44.284Z,43.43
2023-04-24T20:58:11.490Z,43.61
2023-04-24T21:00:39.547Z,43.82
2023-04-24T21:03:06.717Z,43.90
2023-04-24T21:05:34.000Z,43.90
2023-04-24T21:08:01.199Z,43.58
2023-04-24T21:10:28.337Z,43.78
2023-04-24T21:12:55.457Z,43.88
2023-04-24T21:15:22.649Z,43.61
2023-04-24T21:17:49.842Z,44.33
2023-04-24T21:20:16.943Z,44.02
2023-04-24T21:22:44.214Z,43.94
2023-04-24T21:25:11.684Z,43.64
2023-04-24T21:27:38.929Z,43.50
2023-04-24T21:30:07.494Z,43.49
2023-04-24T21:32:34.749Z,43.28
2023-04-24T21:35:01.888Z,43.83
2023-04-24T21:37:29.069Z,43.43
2023-04-24T21:39:56.117Z,43.80
2023-04-24T21:42:23.274Z,44.30
2023-04-24T21:44:50.366Z,44.29
2023-04-24T21:47:17.419Z,44.45
2023-04-24T21:49:44.513Z,44.37
2023-04-24T21:52:11.593Z,44.31
2023-04-24T21:54:38.658Z,44.56
2023-04-24T21:57:06.084Z,44.54
2023-04-24T21:59:34.757Z,44.74
2023-04-24T22:02:01.892Z,44.49
2023-04-24T22:04:29.161Z,44.55
2023-04-24T22:06:56.450Z,44.67
2023-04-24T22:09:23.527Z,44.79
2023-04-24T22:11:50.977Z,44.86
2023-04-24T22:14:18.432Z,45.17
2023-04-24T22:16:47.813Z,45.68
2023-04-24T22:19:15.003Z,45.78
2023-04-24T22:21:42.550Z,46.31
2023-04-24T22:24:09.796Z,46.55
2023-04-24T22:26:36.909Z,46.91
2023-04-24T22:29:04.113Z,47.19
2023-04-24T22:31:31.397Z,47.29
2023-04-24T22:33:58.504Z,47.29
2023-04-24T22:36:26.273Z,47.88
2023-04-24T22:38:53.485Z,47.92
2023-04-24T22:41:22.514Z,48.20
2023-04-24T22:43:50.428Z,48.25
2023-04-24T22:46:17.918Z,48.07
2023-04-24T22:48:45.924Z,48.02
2023-04-24T22:51:13.151Z,47.99
2023-04-24T22:53:40.392Z,48.19
2023-04-24T22:56:07.773Z,48.08
2023-04-24T22:58:34.931Z,48.40
2023-04-24T23:01:02.175Z,48.43
2023-04-24T23:03:29.490Z,48.77
2023-04-24T23:05:56.615Z,48.95
2023-04-24T23:08:23.728Z,48.93
2023-04-24T23:10:50.855Z,49.30
2023-04-24T23:13:17.963Z,49.49
2023-04-24T23:15:45.360Z,49.63
2023-04-24T23:18:12.507Z,49.61
2023-04-24T23:20:39.979Z,49.93
2023-04-24T23:23:07.267Z,49.99
2023-04-24T23:25:34.866Z,50.06
2023-04-24T23:28:01.975Z,49.85
2023-04-24T23:30:29.852Z,49.89
2023-04-24T23:32:57.022Z,50.16
2023-04-24T23:35:24.436Z,50.14
2023-04-24T23:37:51.504Z,50.42
2023-04-24T23:40:18.666Z,50.21
2023-04-24T23:42:51.491Z,50.39
2023-04-24T23:45:23.732Z,50.41
2023-04-24T23:47:51.216Z,50.46
2023-04-24T23:50:18.503Z,50.71
2023-04-24T23:52:45.738Z,50.77
2023-04-24T23:55:13.239Z,50.72
2023-04-24T23:57:40.377Z,50.64
